createdAt,value
2019-03-01T00:01:50.546Z,11.40
2019-03-01T00:04:23.336Z,11.30
2019-03-01T00:07:12.642Z,11.30
2019-03-01T00:09:54.218Z,11.40
2019-03-01T00:13:07.758Z,11.40
2019-03-01T00:16:10.850Z,11.40
2019-03-01T00:19:23.430Z,11.40
2019-03-01T00:22:35.030Z,11.40
2019-03-01T00:25:36.690Z,11.40
2019-03-01T00:28:39.477Z,11.40
2019-03-01T00:31:28.726Z,11.40
2019-03-01T00:34:30.918Z,11.40
2019-03-01T00:37:27.851Z,11.40
2019-03-01T00:40:11.534Z,11.30
2019-03-01T00:43:15.004Z,11.30
2019-03-01T00:45:43.754Z,11.40
2019-03-01T00:48:12.069Z,11.30
2019-03-01T00:50:40.441Z,11.30
2019-03-01T00:53:08.605Z,11.30
2019-03-01T00:55:36.570Z,11.40
2019-03-01T00:58:05.270Z,11.40
2019-03-01T01:00:38.425Z,11.30
2019-03-01T01:03:06.346Z,11.30
2019-03-01T01:05:34.693Z,11.30
2019-03-01T01:08:02.779Z,11.30
2019-03-01T01:10:30.937Z,11.30
2019-03-01T01:12:58.910Z,11.20
2019-03-01T01:15:27.129Z,11.30
2019-03-01T01:17:55.654Z,11.30
2019-03-01T01:20:24.325Z,11.20
2019-03-01T01:22:53.322Z,11.20
2019-03-01T01:25:21.535Z,11.30
2019-03-01T01:27:49.828Z,11.20
2019-03-01T01:30:17.997Z,11.20
2019-03-01T01:32:45.962Z,11.20
2019-03-01T01:35:14.146Z,11.20
2019-03-01T01:37:42.110Z,11.10
2019-03-01T01:40:10.489Z,11.10
2019-03-01T01:42:38.879Z,11.20
2019-03-01T01:45:07.876Z,11.10
2019-03-01T01:47:36.236Z,11.10
2019-03-01T01:50:05.093Z,11.10
2019-03-01T01:52:33.973Z,11.00
2019-03-01T01:55:02.063Z,11.00
2019-03-01T01:57:30.339Z,11.00
2019-03-01T01:59:58.729Z,10.90
2019-03-01T02:02:27.082Z,10.90
2019-03-01T02:04:55.485Z,10.90
2019-03-01T02:07:23.550Z,10.90
2019-03-01T02:09:51.706Z,10.80
2019-03-01T02:12:20.306Z,10.90
2019-03-01T02:14:48.376Z,10.80
2019-03-01T02:17:20.110Z,10.90
2019-03-01T02:19:48.512Z,10.80
2019-03-01T02:22:16.938Z,10.80
2019-03-01T02:24:45.574Z,10.80
2019-03-01T02:27:24.321Z,10.80
2019-03-01T02:29:52.803Z,10.80
2019-03-01T02:32:32.234Z,10.70
2019-03-01T02:35:00.477Z,10.80
2019-03-01T02:37:28.989Z,10.80
2019-03-01T02:39:57.276Z,10.80
2019-03-01T02:42:25.163Z,10.70
2019-03-01T02:44:53.190Z,10.80
2019-03-01T02:47:21.746Z,10.80
2019-03-01T02:49:49.662Z,10.80
2019-03-01T02:52:18.034Z,10.80
2019-03-01T02:54:46.107Z,10.80
2019-03-01T02:57:14.485Z,10.80
2019-03-01T02:59:42.579Z,10.70
2019-03-01T03:02:11.216Z,10.70
2019-03-01T03:04:39.309Z,10.70
2019-03-01T03:07:22.615Z,10.70
2019-03-01T03:09:51.108Z,10.70
2019-03-01T03:12:19.203Z,10.70
2019-03-01T03:14:47.578Z,10.60
2019-03-01T03:17:15.936Z,10.70
2019-03-01T03:19:44.127Z,10.60
2019-03-01T03:22:12.403Z,10.60
2019-03-01T03:24:40.779Z,10.60
2019-03-01T03:27:09.161Z,10.60
2019-03-01T03:29:37.215Z,10.50
2019-03-01T03:32:06.199Z,10.50
2019-03-01T03:34:34.683Z,10.50
2019-03-01T03:37:02.955Z,10.50
2019-03-01T03:39:31.719Z,10.50
2019-03-01T03:41:59.838Z,10.50
2019-03-01T03:44:28.309Z,10.50
2019-03-01T03:46:56.263Z,10.50
2019-03-01T03:49:24.563Z,10.40
2019-03-01T03:51:55.464Z,10.40
2019-03-01T03:54:23.763Z,10.40
2019-03-01T03:56:52.285Z,10.40
2019-03-01T03:59:20.515Z,10.40
2019-03-01T04:01:48.920Z,10.50
2019-03-01T04:04:16.974Z,10.50
2019-03-01T04:06:45.859Z,10.50
2019-03-01T04:09:14.056Z,10.50
2019-03-01T04:11:42.102Z,10.50
2019-03-01T04:14:10.523Z,10.60
2019-03-01T04:16:38.227Z,10.60
2019-03-01T04:19:06.336Z,10.60
2019-03-01T04:21:36.724Z,10.50
2019-03-01T04:24:08.853Z,10.50
2019-03-01T04:26:36.762Z,10.50
2019-03-01T04:29:20.227Z,10.40
2019-03-01T04:31:48.205Z,10.40
2019-03-01T04:34:16.228Z,10.40
2019-03-01T04:36:50.704Z,10.40
2019-03-01T04:39:18.653Z,10.40
2019-03-01T04:41:46.716Z,10.40
2019-03-01T04:44:14.909Z,10.40
2019-03-01T04:46:42.870Z,10.40
2019-03-01T04:49:10.916Z,10.40
2019-03-01T04:51:40.347Z,10.40
2019-03-01T04:54:08.597Z,10.40
2019-03-01T04:56:37.023Z,10.50
2019-03-01T04:59:05.107Z,10.40
2019-03-01T05:01:33.234Z,10.40
2019-03-01T05:04:01.199Z,10.30
2019-03-01T05:06:29.417Z,10.30
2019-03-01T05:08:57.779Z,10.20
2019-03-01T05:11:26.203Z,10.30
2019-03-01T05:13:53.926Z,10.20
2019-03-01T05:16:22.450Z,10.20
2019-03-01T05:18:51.360Z,10.20
2019-03-01T05:21:19.068Z,10.30
2019-03-01T05:23:47.340Z,10.30
2019-03-01T05:26:16.030Z,10.30
2019-03-01T05:28:44.076Z,10.20
2019-03-01T05:31:13.363Z,10.20
2019-03-01T05:33:41.765Z,10.20
2019-03-01T05:36:09.819Z,10.20
2019-03-01T05:38:40.642Z,10.10
2019-03-01T05:41:09.038Z,10.00
2019-03-01T05:43:36.716Z,10.00
2019-03-01T05:46:04.482Z,9.90
2019-03-01T05:48:32.141Z,9.90
2019-03-01T05:51:00.667Z,9.90
2019-03-01T05:53:28.601Z,9.80
2019-03-01T05:55:56.848Z,9.70
2019-03-01T05:58:43.075Z,9.70
2019-03-01T06:01:39.125Z,9.70
2019-03-01T06:04:20.190Z,9.60
2019-03-01T06:07:23.669Z,9.60
2019-03-01T06:10:05.944Z,9.60
2019-03-01T06:13:02.603Z,9.60
2019-03-01T06:16:01.106Z,9.60
2019-03-01T06:19:12.759Z,9.70
2019-03-01T06:22:24.995Z,9.70
2019-03-01T06:25:30.900Z,9.60
2019-03-01T06:28:42.106Z,9.60
2019-03-01T06:31:39.901Z,9.60
2019-03-01T06:34:33.315Z,9.40
2019-03-01T06:37:52.251Z,9.40
2019-03-01T06:41:20.998Z,9.40
2019-03-01T06:44:07.613Z,9.30
2019-03-01T06:47:01.527Z,9.30
2019-03-01T06:49:47.530Z,9.40
2019-03-01T06:52:16.591Z,9.30
2019-03-01T06:54:44.306Z,9.40
2019-03-01T06:57:12.052Z,9.40
2019-03-01T06:59:39.761Z,9.40
2019-03-01T07:02:08.361Z,9.50
2019-03-01T07:04:36.068Z,9.60
2019-03-01T07:07:03.818Z,9.60
2019-03-01T07:09:31.527Z,9.60
2019-03-01T07:11:59.355Z,9.60
2019-03-01T07:14:27.074Z,9.60
2019-03-01T07:16:55.102Z,9.60
2019-03-01T07:19:23.351Z,9.60
2019-03-01T07:21:51.141Z,9.60
2019-03-01T07:24:18.917Z,9.60
2019-03-01T07:26:47.278Z,9.70
2019-03-01T07:29:14.997Z,9.80
2019-03-01T07:31:42.714Z,9.80
2019-03-01T07:34:10.463Z,9.80
2019-03-01T07:36:38.306Z,9.70
2019-03-01T07:39:18.296Z,9.70
2019-03-01T07:41:46.036Z,9.70
2019-03-01T07:44:13.761Z,9.70
2019-03-01T07:46:41.789Z,9.70
2019-03-01T07:49:09.535Z,9.70
2019-03-01T07:51:37.292Z,9.70
2019-03-01T07:54:05.005Z,9.70
2019-03-01T07:56:33.053Z,9.70
2019-03-01T07:59:01.158Z,9.80
2019-03-01T08:01:29.849Z,9.80
2019-03-01T08:03:57.743Z,9.80
2019-03-01T08:06:25.469Z,9.80
2019-03-01T08:08:53.165Z,9.90
2019-03-01T08:11:20.835Z,10.00
2019-03-01T08:13:49.416Z,10.00
2019-03-01T08:16:20.125Z,9.90
2019-03-01T08:18:47.560Z,9.90
2019-03-01T08:21:15.244Z,9.90
2019-03-01T08:23:42.903Z,10.00
2019-03-01T08:26:10.653Z,9.90
2019-03-01T08:28:38.334Z,9.90
2019-03-01T08:31:06.021Z,9.90
2019-03-01T08:33:33.690Z,10.00
2019-03-01T08:36:02.357Z,10.00
2019-03-01T08:38:33.313Z,10.10
2019-03-01T08:41:01.272Z,10.00
2019-03-01T08:43:29.388Z,10.10
2019-03-01T08:45:57.138Z,10.10
2019-03-01T08:48:24.809Z,10.10
2019-03-01T08:50:52.543Z,10.20
2019-03-01T08:53:20.238Z,10.30
2019-03-01T08:55:47.966Z,10.20
2019-03-01T08:58:16.727Z,10.30
2019-03-01T09:00:44.479Z,10.30
2019-03-01T09:03:23.144Z,10.30
2019-03-01T09:05:51.159Z,10.30
2019-03-01T09:08:19.509Z,10.30
2019-03-01T09:10:47.767Z,10.30
2019-03-01T09:13:16.302Z,10.40
2019-03-01T09:15:46.062Z,10.30
2019-03-01T09:18:15.429Z,10.40
2019-03-01T09:20:44.024Z,10.40
2019-03-01T09:23:22.915Z,10.40
2019-03-01T09:25:45.353Z,10.40
2019-03-01T09:28:13.555Z,10.40
2019-03-01T09:30:43.473Z,10.40
2019-03-01T09:33:17.143Z,10.40
2019-03-01T09:35:58.573Z,10.40
2019-03-01T09:38:26.826Z,10.30
2019-03-01T09:40:57.343Z,10.30
2019-03-01T09:43:27.835Z,10.40
2019-03-01T09:45:55.350Z,10.50
2019-03-01T09:48:23.907Z,10.60
2019-03-01T09:50:52.005Z,10.70
2019-03-01T09:53:20.122Z,10.60
2019-03-01T09:55:47.842Z,10.70
2019-03-01T09:58:15.588Z,11.00
2019-03-01T10:00:55.644Z,11.00
2019-03-01T10:03:16.355Z,11.00
2019-03-01T10:05:44.318Z,10.80
2019-03-01T10:08:12.016Z,10.90
2019-03-01T10:10:39.714Z,11.00
2019-03-01T10:13:07.705Z,11.00
2019-03-01T10:15:35.898Z,11.00
2019-03-01T10:18:04.237Z,10.90
2019-03-01T10:20:32.560Z,10.90
2019-03-01T10:23:00.903Z,10.90
2019-03-01T10:25:29.037Z,11.00
2019-03-01T10:27:57.060Z,11.10
2019-03-01T10:30:33.987Z,11.20
2019-03-01T10:33:11.795Z,11.30
2019-03-01T10:35:39.913Z,11.10
2019-03-01T10:38:07.754Z,11.00
2019-03-01T10:40:35.490Z,10.90
2019-03-01T10:43:03.214Z,10.80
2019-03-01T10:45:31.061Z,10.90
2019-03-01T10:47:58.930Z,11.00
2019-03-01T10:50:26.662Z,11.00
2019-03-01T10:52:55.198Z,11.00
2019-03-01T10:55:23.727Z,11.00
2019-03-01T10:57:52.365Z,11.00
2019-03-01T11:00:22.529Z,11.00
2019-03-01T11:02:50.859Z,10.90
2019-03-01T11:05:19.063Z,11.00
2019-03-01T11:07:47.996Z,11.00
2019-03-01T11:10:18.862Z,10.90
2019-03-01T11:12:47.007Z,10.90
2019-03-01T11:15:15.340Z,10.80
2019-03-01T11:17:43.362Z,10.80
2019-03-01T11:20:30.843Z,10.90
2019-03-01T11:22:58.895Z,11.10
2019-03-01T11:25:27.242Z,11.00
2019-03-01T11:27:55.593Z,11.00
2019-03-01T11:30:25.776Z,11.10
2019-03-01T11:32:53.693Z,11.00
2019-03-01T11:35:27.914Z,11.10
2019-03-01T11:38:10.554Z,11.00
2019-03-01T11:40:55.862Z,11.00
2019-03-01T11:43:38.066Z,11.00
2019-03-01T11:46:26.127Z,11.10
2019-03-01T11:49:03.725Z,11.20
2019-03-01T11:51:41.753Z,11.10
2019-03-01T11:54:20.835Z,11.10
2019-03-01T11:57:01.181Z,11.30
2019-03-01T11:59:37.454Z,11.30
2019-03-01T12:02:16.218Z,11.30
2019-03-01T12:04:58.127Z,11.40
2019-03-01T12:07:37.520Z,11.40
2019-03-01T12:10:19.857Z,11.30
2019-03-01T12:12:47.609Z,11.40
2019-03-01T12:15:16.341Z,11.30
2019-03-01T12:17:44.366Z,11.20
2019-03-01T12:20:14.400Z,11.10
2019-03-01T12:22:42.691Z,11.10
2019-03-01T12:25:10.971Z,11.00
2019-03-01T12:27:38.859Z,11.00
2019-03-01T12:30:09.786Z,11.00
2019-03-01T12:32:37.773Z,10.90
2019-03-01T12:35:06.113Z,10.90
2019-03-01T12:37:34.482Z,10.90
2019-03-01T12:40:02.668Z,10.90
2019-03-01T12:42:30.817Z,10.90
2019-03-01T12:44:58.538Z,10.80
2019-03-01T12:47:27.104Z,10.70
2019-03-01T12:49:55.447Z,10.70
2019-03-01T12:52:24.199Z,10.80
2019-03-01T12:54:52.205Z,11.00
2019-03-01T12:57:20.311Z,11.10
2019-03-01T12:59:48.102Z,11.20
2019-03-01T13:02:16.248Z,11.40
2019-03-01T13:04:44.257Z,11.60
2019-03-01T13:07:13.246Z,11.70
2019-03-01T13:09:41.891Z,11.70
2019-03-01T13:12:09.589Z,11.70
2019-03-01T13:14:39.453Z,11.50
2019-03-01T13:17:06.897Z,11.60
2019-03-01T13:19:34.679Z,11.70
2019-03-01T13:22:04.523Z,11.60
2019-03-01T13:24:32.239Z,11.60
2019-03-01T13:26:59.955Z,11.60
2019-03-01T13:29:27.710Z,11.70
2019-03-01T13:31:56.083Z,11.60
2019-03-01T13:34:26.673Z,11.60
2019-03-01T13:36:54.935Z,11.60
2019-03-01T13:39:23.226Z,11.60
2019-03-01T13:41:54.114Z,11.80
2019-03-01T13:44:22.226Z,11.90
2019-03-01T13:46:50.067Z,11.80
2019-03-01T13:49:18.079Z,11.80
2019-03-01T13:51:49.370Z,11.70
2019-03-01T13:54:16.174Z,11.70
2019-03-01T13:56:44.422Z,11.50
2019-03-01T13:59:12.521Z,11.50
2019-03-01T14:01:40.992Z,11.60
2019-03-01T14:04:09.582Z,11.80
2019-03-01T14:06:37.940Z,11.90
2019-03-01T14:09:11.685Z,11.80
2019-03-01T14:11:42.796Z,11.80
2019-03-01T14:14:11.426Z,11.60
2019-03-01T14:16:40.494Z,11.70
2019-03-01T14:19:09.113Z,11.90
2019-03-01T14:21:39.211Z,11.90
2019-03-01T14:24:07.250Z,12.00
2019-03-01T14:26:35.454Z,11.90
2019-03-01T14:29:03.611Z,11.80
2019-03-01T14:31:31.631Z,11.60
2019-03-01T14:33:59.840Z,11.50
2019-03-01T14:36:28.016Z,11.60
2019-03-01T14:38:56.641Z,11.50
2019-03-01T14:41:25.101Z,11.50
2019-03-01T14:43:58.649Z,11.50
2019-03-01T14:46:23.220Z,11.40
2019-03-01T14:48:51.441Z,11.40
2019-03-01T14:51:19.523Z,11.50
2019-03-01T14:53:47.896Z,11.60
2019-03-01T14:56:35.884Z,11.60
2019-03-01T14:59:35.149Z,11.60
2019-03-01T15:02:18.154Z,11.50
2019-03-01T15:04:46.746Z,11.50
2019-03-01T15:07:14.627Z,11.30
2019-03-01T15:09:42.862Z,11.20
2019-03-01T15:12:10.780Z,11.20
2019-03-01T15:14:39.176Z,11.10
2019-03-01T15:17:07.230Z,11.00
2019-03-01T15:19:36.390Z,11.00
2019-03-01T15:22:04.469Z,10.90
2019-03-01T15:24:33.171Z,11.00
2019-03-01T15:27:03.971Z,11.00
2019-03-01T15:29:33.145Z,11.00
2019-03-01T15:32:01.030Z,11.00
2019-03-01T15:34:29.211Z,11.00
2019-03-01T15:36:59.175Z,11.00
2019-03-01T15:39:26.738Z,11.00
2019-03-01T15:41:54.462Z,11.00
2019-03-01T15:44:22.457Z,11.10
2019-03-01T15:46:51.060Z,11.10
2019-03-01T15:49:23.708Z,11.10
2019-03-01T15:51:49.383Z,11.10
2019-03-01T15:54:17.492Z,11.20
2019-03-01T15:56:45.601Z,11.20
2019-03-01T15:59:13.731Z,11.20
2019-03-01T16:01:43.619Z,11.10
2019-03-01T16:04:11.640Z,11.00
2019-03-01T16:06:39.357Z,11.10
2019-03-01T16:09:13.722Z,11.10
2019-03-01T16:11:41.438Z,11.10
2019-03-01T16:14:09.164Z,11.00
2019-03-01T16:16:37.212Z,11.00
2019-03-01T16:19:05.247Z,11.00
2019-03-01T16:21:33.847Z,11.00
2019-03-01T16:24:04.980Z,11.00
2019-03-01T16:26:33.530Z,10.90
2019-03-01T16:29:03.898Z,10.90
2019-03-01T16:31:33.027Z,10.90
2019-03-01T16:34:04.372Z,10.80
2019-03-01T16:36:38.437Z,10.80
2019-03-01T16:39:11.165Z,10.80
2019-03-01T16:41:39.740Z,10.70
2019-03-01T16:44:09.647Z,10.70
2019-03-01T16:46:38.191Z,10.70
2019-03-01T16:49:06.908Z,10.70
2019-03-01T16:51:35.309Z,10.60
2019-03-01T16:54:03.350Z,10.60
2019-03-01T16:56:34.635Z,10.50
2019-03-01T16:59:03.465Z,10.50
2019-03-01T17:01:32.786Z,10.50
2019-03-01T17:04:00.966Z,10.50
2019-03-01T17:06:29.634Z,10.50
2019-03-01T17:08:57.874Z,10.50
2019-03-01T17:11:26.441Z,10.50
2019-03-01T17:13:54.522Z,10.40
2019-03-01T17:16:23.823Z,10.40
2019-03-01T17:18:53.080Z,10.40
2019-03-01T17:21:21.662Z,10.40
2019-03-01T17:23:49.688Z,10.40
2019-03-01T17:26:18.073Z,10.40
2019-03-01T17:28:46.125Z,10.40
2019-03-01T17:31:14.567Z,10.40
2019-03-01T17:33:45.038Z,10.30
2019-03-01T17:36:16.765Z,10.30
2019-03-01T17:38:45.902Z,10.30
2019-03-01T17:41:13.417Z,10.30
2019-03-01T17:43:41.582Z,10.30
2019-03-01T17:46:09.882Z,10.30
2019-03-01T17:48:38.046Z,10.30
2019-03-01T17:51:06.050Z,10.30
2019-03-01T17:53:34.485Z,10.20
2019-03-01T17:56:02.607Z,10.20
2019-03-01T17:58:41.816Z,10.20
2019-03-01T18:01:09.985Z,10.20
2019-03-01T18:03:38.023Z,10.10
2019-03-01T18:06:06.655Z,10.10
2019-03-01T18:08:35.877Z,10.00
2019-03-01T18:11:14.703Z,10.10
2019-03-01T18:13:42.477Z,10.10
2019-03-01T18:16:10.653Z,10.10
2019-03-01T18:18:39.855Z,10.10
2019-03-01T18:21:10.187Z,10.00
2019-03-01T18:23:38.997Z,10.00
2019-03-01T18:26:07.772Z,10.00
2019-03-01T18:28:36.047Z,10.00
2019-03-01T18:31:05.266Z,10.00
2019-03-01T18:33:33.918Z,10.10
2019-03-01T18:36:04.439Z,10.00
2019-03-01T18:38:33.534Z,10.00
2019-03-01T18:41:01.929Z,10.10
2019-03-01T18:43:30.617Z,10.10
2019-03-01T18:45:58.729Z,10.10
2019-03-01T18:48:26.631Z,10.10
2019-03-01T18:50:54.910Z,10.10
2019-03-01T18:53:24.995Z,10.00
2019-03-01T18:55:53.703Z,10.00
2019-03-01T18:58:24.438Z,10.00
2019-03-01T19:00:52.787Z,10.00
2019-03-01T19:03:20.662Z,10.00
2019-03-01T19:05:48.440Z,10.10
2019-03-01T19:08:16.187Z,10.20
2019-03-01T19:10:43.985Z,10.10
2019-03-01T19:13:12.842Z,10.10
2019-03-01T19:15:40.591Z,10.00
2019-03-01T19:18:09.133Z,10.10
2019-03-01T19:20:37.881Z,10.10
2019-03-01T19:23:06.537Z,10.10
2019-03-01T19:25:34.233Z,10.10
2019-03-01T19:28:02.326Z,10.10
2019-03-01T19:30:30.026Z,10.00
2019-03-01T19:32:58.916Z,10.00
2019-03-01T19:35:29.779Z,10.10
2019-03-01T19:37:56.741Z,10.10
2019-03-01T19:40:24.816Z,10.10
2019-03-01T19:42:53.416Z,10.10
2019-03-01T19:45:21.691Z,10.10
2019-03-01T19:47:51.394Z,10.20
2019-03-01T19:50:21.733Z,10.10
2019-03-01T19:52:50.495Z,10.00
2019-03-01T19:55:18.685Z,10.00
2019-03-01T19:57:46.789Z,10.00
2019-03-01T20:00:16.953Z,10.10
2019-03-01T20:02:45.021Z,10.00
2019-03-01T20:05:15.442Z,10.00
2019-03-01T20:07:43.254Z,10.00
2019-03-01T20:10:15.098Z,10.10
2019-03-01T20:12:41.830Z,10.10
2019-03-01T20:15:12.518Z,10.00
2019-03-01T20:17:44.337Z,10.00
2019-03-01T20:20:11.858Z,9.90
2019-03-01T20:22:40.175Z,10.00
2019-03-01T20:25:12.716Z,9.90
2019-03-01T20:27:40.250Z,9.90
2019-03-01T20:30:14.369Z,10.00
2019-03-01T20:32:43.228Z,10.00
2019-03-01T20:35:12.893Z,10.00
2019-03-01T20:37:42.102Z,10.00
2019-03-01T20:40:09.884Z,9.90
2019-03-01T20:42:38.570Z,9.90
2019-03-01T20:45:09.358Z,9.90
2019-03-01T20:47:37.070Z,9.90
2019-03-01T20:50:05.250Z,9.80
2019-03-01T20:52:34.870Z,9.80
2019-03-01T20:55:03.027Z,9.90
2019-03-01T20:57:31.040Z,9.90
2019-03-01T20:59:59.137Z,9.90
2019-03-01T21:02:26.877Z,10.00
2019-03-01T21:04:54.581Z,9.90
2019-03-01T21:07:22.409Z,9.90
2019-03-01T21:09:51.149Z,9.90
2019-03-01T21:12:18.868Z,9.80
2019-03-01T21:14:46.618Z,9.90
2019-03-01T21:17:16.715Z,9.90
2019-03-01T21:19:44.597Z,9.80
2019-03-01T21:22:12.840Z,9.80
2019-03-01T21:24:40.557Z,9.80
2019-03-01T21:27:09.007Z,9.80
2019-03-01T21:29:36.702Z,9.70
2019-03-01T21:32:04.489Z,9.80
2019-03-01T21:34:34.869Z,9.80
2019-03-01T21:37:02.672Z,9.70
2019-03-01T21:39:31.708Z,9.70
2019-03-01T21:41:59.419Z,9.60
2019-03-01T21:44:27.166Z,9.50
2019-03-01T21:46:54.894Z,9.40
2019-03-01T21:49:22.625Z,9.40
2019-03-01T21:51:51.747Z,9.40
2019-03-01T21:54:20.337Z,9.50
2019-03-01T21:57:14.271Z,9.50
2019-03-01T21:59:18.569Z,9.40
2019-03-01T22:01:46.875Z,9.40
2019-03-01T22:04:14.643Z,9.30
2019-03-01T22:06:42.477Z,9.30
2019-03-01T22:09:10.283Z,9.30
2019-03-01T22:11:38.022Z,9.30
2019-03-01T22:14:07.521Z,9.40
2019-03-01T22:16:37.196Z,9.40
2019-03-01T22:19:07.253Z,9.30
2019-03-01T22:21:36.015Z,9.20
2019-03-01T22:24:04.364Z,9.20
2019-03-01T22:26:32.471Z,9.20
2019-03-01T22:29:00.696Z,9.20
2019-03-01T22:31:28.604Z,9.10
2019-03-01T22:33:57.607Z,9.10
2019-03-01T22:36:26.323Z,9.10
2019-03-01T22:38:54.346Z,9.20
2019-03-01T22:41:22.543Z,9.20
2019-03-01T22:43:50.597Z,9.10
2019-03-01T22:46:21.061Z,9.10
2019-03-01T22:48:53.231Z,9.20
2019-03-01T22:51:19.249Z,9.10
2019-03-01T22:53:48.614Z,9.10
2019-03-01T22:56:16.918Z,9.10
2019-03-01T22:58:44.654Z,9.10
2019-03-01T23:01:20.291Z,9.10
2019-03-01T23:03:55.945Z,9.00
2019-03-01T23:06:23.614Z,8.90
2019-03-01T23:08:51.479Z,8.90
2019-03-01T23:11:19.881Z,8.90
2019-03-01T23:13:47.950Z,8.90
2019-03-01T23:16:18.768Z,8.80
2019-03-01T23:18:46.229Z,8.80
2019-03-01T23:21:14.628Z,8.70
2019-03-01T23:23:42.764Z,8.80
2019-03-01T23:26:10.958Z,8.70
2019-03-01T23:28:40.854Z,8.70
2019-03-01T23:31:09.333Z,8.80
2019-03-01T23:33:38.003Z,8.80
2019-03-01T23:36:06.718Z,8.80
2019-03-01T23:38:35.391Z,8.70
2019-03-01T23:41:03.794Z,8.70
2019-03-01T23:43:31.983Z,8.70
2019-03-01T23:46:01.638Z,8.70
2019-03-01T23:48:29.847Z,8.70
2019-03-01T23:50:59.182Z,8.70
2019-03-01T23:53:27.516Z,8.70
2019-03-01T23:55:55.884Z,8.70
2019-03-01T23:58:24.707Z,8.70
